Time;durP1;ratioP1;P1;durP2;ratioP2;P2;SDS_P1;SDS_P2;PMS_P1;PMS_P2;Temp;Humidity;BMP_temperature;BMP_pressure;BME280_temperature;BME280_humidity;BME280_pressure;Samples;Min_cycle;Max_cycle;Signal;HPM_P1;HPM_P2
2022/01/14 00:02:14;;;;;;;;;14.50;14.25;;;;;20.21;34.56;103365.16;5067035;28;51257;-45
2022/01/14 00:04:39;;;;;;;;;15.25;15.25;;;;;20.19;34.56;103366.19;5061633;28;51215;-46
2022/01/14 00:07:05;;;;;;;;;12.00;12.00;;;;;20.16;34.73;103366.53;5075166;28;51270;-45
2022/01/14 00:09:33;;;;;;;;;15.50;11.25;;;;;20.15;34.68;103361.19;5075071;28;51997;-45
2022/01/14 00:11:59;;;;;;;;;15.75;11.75;;;;;20.14;34.69;103365.81;5058579;28;51091;-45
2022/01/14 00:14:41;;;;;;;;;14.25;12.50;;;;;20.13;34.85;103357.75;5067907;28;51159;-51
2022/01/14 00:17:12;;;;;;;;;12.75;11.00;;;;;20.11;34.56;103363.41;5060676;27;51233;-49
2022/01/14 00:19:38;;;;;;;;;13.50;12.25;;;;;20.11;35.04;103359.75;5069246;28;51177;-49
2022/01/14 00:22:09;;;;;;;;;13.00;12.75;;;;;20.09;34.46;103353.56;5057730;28;51588;-47
2022/01/14 00:33:09;;;;;;;;;12.25;11.25;;;;;20.04;34.68;103364.19;5066731;28;52328;-45
2022/01/14 00:35:36;;;;;;;;;12.25;9.50;;;;;20.02;34.94;103364.34;5062352;28;50991;-46
2022/01/14 00:38:02;;;;;;;;;15.00;12.50;;;;;20.00;34.80;103360.88;5074175;28;50992;-45
2022/01/14 00:40:28;;;;;;;;;13.00;10.75;;;;;19.99;34.64;103353.66;5072963;27;51214;-46
2022/01/14 00:42:53;;;;;;;;;11.00;10.00;;;;;19.97;34.69;103352.94;5058888;28;51279;-46
2022/01/14 00:45:19;;;;;;;;;13.50;11.00;;;;;19.98;34.83;103349.16;5072037;28;51379;-48
2022/01/14 00:47:45;;;;;;;;;15.25;14.50;;;;;19.95;34.82;103349.50;5058017;28;51373;-45
2022/01/14 00:50:13;;;;;;;;;14.50;12.75;;;;;19.95;34.79;103346.75;5065368;28;51407;-52
2022/01/14 00:52:40;;;;;;;;;11.50;9.25;;;;;19.93;34.87;103340.53;5071265;28;50997;-47
2022/01/14 00:55:08;;;;;;;;;14.75;11.50;;;;;19.93;34.83;103346.03;5066732;28;51196;-47
2022/01/14 01:00:34;;;;;;;;;14.00;12.25;;;;;19.90;35.04;103354.59;5056061;28;51164;-52
2022/01/14 01:03:02;;;;;;;;;13.25;13.00;;;;;19.88;34.97;103346.50;5065811;28;51304;-50
2022/01/14 01:05:28;;;;;;;;;12.00;12.00;;;;;19.87;34.93;103346.66;5060711;28;51265;-47
2022/01/14 01:08:08;;;;;;;;;13.50;13.50;;;;;19.87;34.94;103335.66;5076263;27;50998;-47
2022/01/14 01:10:35;;;;;;;;;14.50;13.00;;;;;19.85;34.78;103344.06;5072915;28;51811;-46
2022/01/14 01:13:13;;;;;;;;;13.00;12.75;;;;;19.85;34.81;103345.97;5057333;28;51110;-46
2022/01/14 01:15:38;;;;;;;;;13.25;13.00;;;;;19.84;34.92;103353.34;5069842;28;51148;-47
2022/01/14 01:18:04;;;;;;;;;14.50;12.25;;;;;19.81;34.76;103342.69;5075985;28;50971;-48
2022/01/14 01:20:29;;;;;;;;;11.75;11.75;;;;;19.81;34.90;103358.31;5062736;28;51603;-50
2022/01/14 01:22:54;;;;;;;;;15.00;14.50;;;;;19.81;34.64;103352.81;5070142;28;51238;-47
2022/01/14 01:25:24;;;;;;;;;12.25;12.25;;;;;19.79;34.81;103344.69;5060805;28;51434;-48
2022/01/14 01:27:51;;;;;;;;;13.50;11.50;;;;;19.78;34.97;103347.59;5064993;27;51381;-45
2022/01/14 01:32:56;;;;;;;;;15.00;12.50;;;;;19.77;34.96;103349.50;5062554;28;51463;-49
2022/01/14 01:35:22;;;;;;;;;11.50;10.50;;;;;19.76;34.81;103345.03;5058647;28;51090;-48
2022/01/14 01:37:47;;;;;;;;;14.75;11.00;;;;;19.75;34.83;103342.44;5063754;28;51211;-49
2022/01/14 01:40:16;;;;;;;;;12.50;12.50;;;;;19.74;34.80;103347.06;5059416;28;52615;-47
2022/01/14 01:42:45;;;;;;;;;15.25;11.50;;;;;19.73;35.07;103344.47;5056042;28;51342;-49
2022/01/14 01:45:14;;;;;;;;;11.00;9.50;;;;;19.71;35.09;103341.88;5059511;28;51204;-48
2022/01/14 01:47:41;;;;;;;;;15.75;12.50;;;;;19.70;35.00;103348.41;5066696;28;51171;-47
2022/01/14 01:50:15;;;;;;;;;14.00;12.75;;;;;19.70;35.16;103342.91;5073657;28;51925;-50
2022/01/14 01:52:41;;;;;;;;;11.50;11.50;;;;;19.68;34.77;103353.19;5056587;28;51566;-48
2022/01/14 01:55:09;;;;;;;;;15.50;11.75;;;;;19.69;34.92;103343.03;5058523;28;51503;-51
2022/01/14 01:57:35;;;;;;;;;12.25;10.75;;;;;19.68;35.14;103341.31;5059363;28;51162;-45
2022/01/14 02:00:02;;;;;;;;;12.25;8.75;;;;;19.67;34.90;103339.59;5059950;28;51079;-50
2022/01/14 02:02:28;;;;;;;;;12.00;11.25;;;;;19.64;35.04;103343.53;5064514;28;51296;-50
2022/01/14 02:04:53;;;;;;;;;10.50;8.75;;;;;19.64;35.05;103339.91;5063765;28;51010;-49
2022/01/14 02:07:19;;;;;;;;;12.50;12.00;;;;;19.63;35.15;103338.19;5066789;28;51100;-52
2022/01/14 02:09:44;;;;;;;;;12.75;11.25;;;;;19.62;35.05;103331.84;5067855;28;52183;-49
2022/01/14 02:12:11;;;;;;;;;13.00;11.25;;;;;19.60;35.01;103323.75;5071416;28;51180;-50
2022/01/14 02:22:10;;;;;;;;;11.75;11.50;;;;;19.57;35.09;103317.69;5071460;28;51372;-49
2022/01/14 02:22:49;;;;;;;;;10.50;9.25;;;;;19.57;34.95;103320.41;5070789;28;51124;-47
2022/01/14 02:25:16;;;;;;;;;11.00;10.00;;;;;19.56;34.91;103325.06;5060856;28;51031;-48
2022/01/14 02:27:44;;;;;;;;;12.75;12.00;;;;;19.56;35.30;103329.69;5066388;27;51279;-45
2022/01/14 02:30:10;;;;;;;;;12.25;10.25;;;;;19.54;34.92;103317.97;5059083;28;51121;-46
2022/01/14 02:32:36;;;;;;;;;14.25;11.75;;;;;19.53;35.15;103325.34;5071820;28;51411;-49
2022/01/14 02:35:02;;;;;;;;;15.00;14.50;;;;;19.51;35.09;103324.66;5062585;28;50972;-49
2022/01/14 02:37:28;;;;;;;;;12.25;11.75;;;;;19.52;35.12;103320.00;5057976;28;51428;-48
2022/01/14 02:39:54;;;;;;;;;11.25;10.50;;;;;19.50;35.14;103314.69;5073289;28;51103;-49
2022/01/14 02:42:20;;;;;;;;;11.50;11.50;;;;;19.48;35.30;103302.94;5066247;28;51486;-49
2022/01/14 02:44:48;;;;;;;;;10.00;8.50;;;;;19.47;35.13;103298.47;5072708;28;51566;-50
2022/01/14 02:47:13;;;;;;;;;13.25;12.00;;;;;19.48;35.37;103291.09;5069474;27;51485;-50
2022/01/14 02:49:39;;;;;;;;;12.25;11.75;;;;;19.48;35.22;103285.59;5061572;28;51089;-51
2022/01/14 02:52:05;;;;;;;;;15.50;13.25;;;;;19.47;35.03;103286.63;5077261;28;51120;-48
2022/01/14 02:54:41;;;;;;;;;13.50;13.50;;;;;19.46;34.91;103294.00;5080240;27;51353;-50
2022/01/14 02:57:09;;;;;;;;;16.75;12.75;;;;;19.45;35.10;103291.41;5066948;27;51244;-51
2022/01/14 02:59:37;;;;;;;;;13.00;12.50;;;;;19.45;35.15;103291.41;5061158;28;52099;-48
2022/01/14 03:02:06;;;;;;;;;11.75;11.75;;;;;19.45;35.15;103303.25;5074975;28;51171;-48
2022/01/14 03:04:36;;;;;;;;;12.00;10.25;;;;;19.43;35.15;103288.81;5070161;28;51169;-47
2022/01/14 03:07:02;;;;;;;;;17.00;11.75;;;;;19.43;35.25;103279.72;5066815;28;51406;-51
2022/01/14 03:09:28;;;;;;;;;12.00;10.75;;;;;19.42;35.31;103275.25;5080067;28;52821;-45
2022/01/14 03:11:55;;;;;;;;;11.25;11.25;;;;;19.42;35.11;103267.84;5073642;28;51107;-48
2022/01/14 03:14:25;;;;;;;;;12.00;11.00;;;;;19.41;35.08;103268.88;5078967;28;51817;-49
2022/01/14 03:16:53;;;;;;;;;13.25;10.75;;;;;19.40;35.05;103266.28;5076165;27;51461;-46
2022/01/14 03:19:24;;;;;;;;;10.75;10.75;;;;;19.39;35.26;103267.31;5072065;28;53076;-44
2022/01/14 03:21:53;;;;;;;;;13.50;11.00;;;;;19.38;35.33;103269.16;5074012;28;51037;-47
2022/01/14 03:26:46;;;;;;;;;15.25;12.25;;;;;19.38;35.01;103262.81;5077034;27;51308;-46
2022/01/14 03:29:16;;;;;;;;;13.00;13.00;;;;;19.37;35.10;103258.34;5060895;28;52179;-48
2022/01/14 03:31:44;;;;;;;;;15.50;13.00;;;;;19.35;35.26;103264.00;5069987;28;51328;-45
2022/01/14 03:34:09;;;;;;;;;12.75;9.75;;;;;19.35;35.29;103263.13;5076941;27;51137;-48
2022/01/14 03:36:35;;;;;;;;;11.75;11.00;;;;;19.35;35.06;103264.00;5072365;28;51387;-48
2022/01/14 03:39:01;;;;;;;;;16.25;12.75;;;;;19.33;35.24;103257.78;5071050;28;51870;-43
2022/01/14 03:41:26;;;;;;;;;11.50;11.25;;;;;19.32;35.16;103262.44;5073800;28;51073;-44
2022/01/14 03:43:51;;;;;;;;;12.00;11.00;;;;;19.32;35.25;103258.81;5081039;28;51067;-46
2022/01/14 03:46:17;;;;;;;;;16.00;10.25;;;;;19.32;35.27;103258.81;5062882;28;51337;-45
2022/01/14 03:48:42;;;;;;;;;12.25;11.50;;;;;19.30;35.05;103267.22;5068983;28;51044;-46
2022/01/14 03:51:07;;;;;;;;;9.00;9.00;;;;;19.31;35.39;103270.84;5066970;28;51117;-49
2022/01/14 03:53:33;;;;;;;;;9.75;9.75;;;;;19.31;35.37;103268.09;5069991;27;51215;-49
2022/01/14 03:55:59;;;;;;;;;11.75;10.75;;;;;19.31;35.83;103260.72;5060121;28;51046;-48
2022/01/14 03:58:24;;;;;;;;;13.50;12.25;;;;;19.30;35.78;103249.88;5063280;28;51900;-49
2022/01/14 04:00:50;;;;;;;;;10.75;10.25;;;;;19.30;35.69;103250.75;5074189;27;51182;-47
2022/01/14 04:03:15;;;;;;;;;11.25;10.75;;;;;19.31;35.45;103251.59;5076838;28;50999;-44
2022/01/14 04:05:41;;;;;;;;;11.00;8.75;;;;;19.29;35.61;103249.00;5068501;28;51396;-45
2022/01/14 04:08:06;;;;;;;;;10.25;7.00;;;;;19.28;35.46;103252.78;5066943;27;53395;-53
2022/01/14 04:10:32;;;;;;;;;8.50;7.50;;;;;19.28;35.51;103260.16;5066379;28;50983;-45
2022/01/14 04:13:02;;;;;;;;;10.25;10.25;;;;;19.27;35.27;103256.53;5058457;28;51153;-45
2022/01/14 04:15:38;;;;;;;;;16.75;14.50;;;;;19.25;35.35;103250.31;5059462;28;51316;-45
2022/01/14 04:18:09;;;;;;;;;14.75;11.75;;;;;19.25;35.47;103246.72;5064669;27;51338;-43
2022/01/14 04:20:36;;;;;;;;;12.00;11.75;;;;;19.23;35.44;103252.38;5067827;28;51044;-44
2022/01/14 04:23:04;;;;;;;;;12.00;11.75;;;;;19.22;35.41;103249.78;5070141;28;51113;-48
2022/01/14 04:25:30;;;;;;;;;16.00;13.25;;;;;19.21;35.39;103253.56;5073738;28;51214;-44
2022/01/14 04:27:55;;;;;;;;;12.50;11.50;;;;;19.21;35.51;103264.53;5072366;27;51738;-49
2022/01/14 04:30:20;;;;;;;;;14.50;12.50;;;;;19.19;35.43;103253.72;5069482;28;51549;-43
2022/01/14 04:32:46;;;;;;;;;13.25;11.25;;;;;19.19;35.32;103247.34;5075454;28;51354;-43
2022/01/14 04:35:11;;;;;;;;;12.00;10.50;;;;;19.18;35.33;103240.13;5058954;28;51159;-46
2022/01/14 04:37:37;;;;;;;;;13.75;13.50;;;;;19.17;35.13;103243.88;5066191;28;50984;-46
2022/01/14 04:40:04;;;;;;;;;14.00;13.00;;;;;19.15;35.30;103233.03;5073784;28;51124;-45
2022/01/14 04:42:30;;;;;;;;;13.75;11.50;;;;;19.14;35.38;103228.56;5073807;28;51148;-45
2022/01/14 04:44:56;;;;;;;;;12.50;12.50;;;;;19.14;35.32;103234.06;5065396;28;51380;-47
2022/01/14 04:47:32;;;;;;;;;17.00;13.75;;;;;19.12;35.50;103236.13;5071441;28;51129;-46
2022/01/14 04:49:58;;;;;;;;;12.50;9.25;;;;;19.12;35.25;103230.63;5067300;27;51145;-50
2022/01/14 04:52:24;;;;;;;;;7.50;7.50;;;;;19.11;35.26;103228.91;5069688;28;51136;-49
2022/01/14 04:54:49;;;;;;;;;11.75;10.75;;;;;19.11;35.19;103225.28;5076737;27;51286;-44
2022/01/14 04:57:16;;;;;;;;;15.25;15.25;;;;;19.10;35.25;103221.69;5071957;28;53634;-47
2022/01/14 04:59:46;;;;;;;;;14.75;9.75;;;;;19.10;35.32;103215.31;5068625;28;51123;-46
2022/01/14 05:02:11;;;;;;;;;13.50;12.00;;;;;19.08;35.34;103210.00;5056475;28;51109;-44
2022/01/14 05:04:38;;;;;;;;;12.50;12.50;;;;;19.08;35.16;103206.38;5060618;28;51003;-48
2022/01/14 05:07:03;;;;;;;;;14.00;10.75;;;;;19.07;35.43;103210.13;5076402;27;51019;-47
2022/01/14 05:09:36;;;;;;;;;11.25;11.25;;;;;19.07;35.44;103215.59;5063427;28;51212;-48
2022/01/14 05:12:07;;;;;;;;;13.00;11.00;;;;;19.05;35.26;103224.00;5061794;28;51073;-51
2022/01/14 05:14:33;;;;;;;;;15.25;14.00;;;;;19.06;35.32;103222.13;5074190;28;51151;-49
2022/01/14 05:16:58;;;;;;;;;12.25;11.75;;;;;19.04;35.28;103214.91;5065691;28;51578;-47
2022/01/14 05:19:24;;;;;;;;;15.50;11.75;;;;;19.03;35.24;103223.31;5056359;28;51157;-48
2022/01/14 05:21:49;;;;;;;;;14.25;12.00;;;;;19.02;35.37;103219.69;5064535;28;51307;-47
2022/01/14 05:24:14;;;;;;;;;15.75;15.75;;;;;19.02;35.36;103213.34;5064768;28;51427;-46
2022/01/14 05:26:40;;;;;;;;;10.75;8.50;;;;;19.02;35.45;103224.34;5066896;27;51256;-51
2022/01/14 05:29:05;;;;;;;;;14.25;12.25;;;;;19.03;35.28;103223.31;5065168;28;51168;-46
2022/01/14 05:31:51;;;;;;;;;26.00;22.25;;;;;19.02;34.76;103224.34;5068454;28;51375;-49
2022/01/14 05:34:17;;;;;;;;;30.50;25.50;;;;;19.01;34.38;103236.34;5074395;28;51088;-44
2022/01/14 05:36:43;;;;;;;;;27.00;23.75;;;;;18.99;33.87;103232.91;5066527;28;51963;-45
2022/01/14 05:39:09;;;;;;;;;26.50;23.75;;;;;18.96;33.66;103236.78;5063122;28;51054;-45
2022/01/14 05:41:35;;;;;;;;;29.50;24.25;;;;;18.93;33.52;103242.59;5064820;28;50951;-44
2022/01/14 05:44:01;;;;;;;;;29.75;26.75;;;;;18.90;33.28;103248.41;5056094;28;51033;-47
2022/01/14 05:46:27;;;;;;;;;27.25;23.50;;;;;18.86;32.93;103247.00;5058471;28;51968;-44
2022/01/14 05:48:53;;;;;;;;;36.00;29.75;;;;;18.81;32.77;103248.47;5056057;28;51229;-44
2022/01/14 05:51:18;;;;;;;;;36.00;31.50;;;;;18.79;32.96;103253.25;5063634;28;51102;-46
2022/01/14 05:53:44;;;;;;;;;28.25;26.00;;;;;18.74;32.73;103245.47;5057125;28;51257;-44
2022/01/14 05:56:09;;;;;;;;;30.50;27.00;;;;;18.70;32.80;103241.31;5064841;28;51702;-46
2022/01/14 05:58:35;;;;;;;;;30.50;29.75;;;;;18.66;32.78;103251.72;5074224;27;51166;-49
2022/01/14 06:01:00;;;;;;;;;34.25;32.00;;;;;18.63;32.70;103245.63;5071469;28;50981;-51
2022/01/14 06:03:25;;;;;;;;;31.25;28.75;;;;;18.57;32.67;103236.13;5057170;28;51136;-46
2022/01/14 06:05:51;;;;;;;;;31.50;29.25;;;;;18.56;32.55;103236.31;5064080;28;51129;-48
2022/01/14 06:08:16;;;;;;;;;31.00;28.00;;;;;18.54;32.62;103241.91;5063249;28;51130;-46
2022/01/14 06:10:41;;;;;;;;;29.25;24.50;;;;;18.55;32.62;103240.94;5061573;28;51093;-49
2022/01/14 06:13:07;;;;;;;;;27.25;23.75;;;;;18.62;32.72;103232.94;5057555;28;51021;-50
2022/01/14 06:15:32;;;;;;;;;30.25;21.00;;;;;18.68;33.09;103232.34;5075027;28;50922;-48
2022/01/14 06:17:57;;;;;;;;;23.75;19.25;;;;;18.76;33.19;103235.22;5067212;28;51280;-45
2022/01/14 06:20:23;;;;;;;;;20.50;19.50;;;;;18.85;33.10;103233.41;5060020;28;51221;-44
2022/01/14 06:22:49;;;;;;;;;23.25;18.50;;;;;18.93;33.20;103231.63;5072236;28;51297;-48
2022/01/14 06:25:14;;;;;;;;;21.50;18.75;;;;;19.02;33.30;103229.81;5067875;28;52570;-49
2022/01/14 06:27:40;;;;;;;;;16.75;15.25;;;;;19.08;33.41;103226.47;5070019;27;51157;-46
2022/01/14 06:30:07;;;;;;;;;17.50;17.50;;;;;19.16;33.35;103228.41;5062401;28;51121;-44
2022/01/14 06:32:35;;;;;;;;;16.00;15.25;;;;;19.24;33.60;103231.25;5060784;28;51298;-45
2022/01/14 06:35:01;;;;;;;;;18.50;12.75;;;;;19.29;34.02;103229.78;5060220;27;51727;-52
2022/01/14 06:37:26;;;;;;;;;20.75;16.50;;;;;19.38;34.00;103230.69;5071556;28;51809;-59
2022/01/14 06:39:53;;;;;;;;;18.00;14.25;;;;;19.46;34.10;103232.66;5059313;28;51254;-47
2022/01/14 06:42:18;;;;;;;;;11.00;10.25;;;;;19.55;34.23;103237.22;5061960;28;51146;-44
2022/01/14 06:44:44;;;;;;;;;11.00;9.25;;;;;19.62;34.11;103221.84;5074438;28;51671;-48
2022/01/14 06:47:09;;;;;;;;;13.50;12.50;;;;;19.70;34.60;103226.56;5075299;27;51329;-46
2022/01/14 06:49:34;;;;;;;;;15.00;12.25;;;;;19.77;34.29;103231.22;5068870;28;51217;-47
2022/01/14 06:52:00;;;;;;;;;18.00;12.25;;;;;19.84;34.29;103225.97;5073393;28;50999;-48
2022/01/14 06:54:25;;;;;;;;;13.00;12.25;;;;;19.91;34.17;103229.81;5057931;28;51959;-45
2022/01/14 06:56:50;;;;;;;;;9.25;9.25;;;;;19.98;34.55;103221.75;5072460;28;50993;-52
2022/01/14 06:59:16;;;;;;;;;13.25;12.50;;;;;20.04;34.91;103224.72;5064155;27;51652;-51
2022/01/14 07:01:41;;;;;;;;;13.00;9.50;;;;;20.11;34.65;103224.91;5058911;28;51133;-49
2022/01/14 07:04:07;;;;;;;;;10.75;10.25;;;;;20.17;34.90;103218.78;5067683;28;51513;-49
2022/01/14 07:06:32;;;;;;;;;15.25;13.50;;;;;20.24;34.73;103227.25;5061838;28;51061;-48
2022/01/14 07:08:58;;;;;;;;;9.25;8.50;;;;;20.28;35.01;103226.75;5073005;28;51623;-47
2022/01/14 07:11:29;;;;;;;;;10.25;10.25;;;;;20.33;34.81;103218.03;5074382;28;51464;-46
2022/01/14 07:13:54;;;;;;;;;12.25;9.25;;;;;20.38;34.34;103207.38;5072205;28;51193;-45
2022/01/14 07:16:19;;;;;;;;;11.00;10.00;;;;;20.42;34.73;103220.66;5058290;27;51085;-46
2022/01/14 07:18:48;;;;;;;;;13.00;11.00;;;;;20.46;34.44;103208.31;5054798;28;51122;-49
2022/01/14 07:21:13;;;;;;;;;11.25;8.00;;;;;20.52;34.28;103222.41;5056884;28;51278;-49
2022/01/14 07:23:38;;;;;;;;;9.25;8.75;;;;;20.56;34.33;103215.56;5061149;28;51876;-48
2022/01/14 07:26:04;;;;;;;;;11.75;11.00;;;;;20.60;34.01;103220.56;5073260;27;51127;-49
2022/01/14 07:28:29;;;;;;;;;8.00;6.00;;;;;20.64;34.17;103210.09;5069575;28;51001;-50
2022/01/14 07:30:54;;;;;;;;;12.50;10.25;;;;;20.65;33.90;103207.19;5071962;28;51158;-48
2022/01/14 07:33:20;;;;;;;;;12.50;12.25;;;;;20.69;34.02;103210.44;5068120;28;51045;-46
2022/01/14 07:35:45;;;;;;;;;10.50;10.25;;;;;20.70;33.93;103215.78;5077788;28;51039;-46
2022/01/14 07:38:10;;;;;;;;;13.75;12.50;;;;;20.73;33.61;103220.09;5075190;28;51054;-52
2022/01/14 07:40:38;;;;;;;;;13.75;11.75;;;;;20.77;33.74;103223.41;5064031;27;51143;-50
2022/01/14 07:43:04;;;;;;;;;11.25;10.75;;;;;20.78;33.84;103214.97;5063209;28;51204;-51
2022/01/14 07:45:29;;;;;;;;;9.50;9.50;;;;;20.81;33.47;103211.84;5068933;27;51120;-52
2022/01/14 07:47:55;;;;;;;;;13.50;11.25;;;;;20.85;33.99;103215.16;5074619;28;51287;-46
2022/01/14 07:50:20;;;;;;;;;14.50;14.25;;;;;20.88;33.89;103221.19;5059370;28;51225;-45
2022/01/14 07:52:45;;;;;;;;;14.75;14.75;;;;;20.92;33.88;103217.06;5063112;28;51086;-49
2022/01/14 07:55:11;;;;;;;;;16.25;12.50;;;;;20.98;33.44;103226.56;5070679;28;51148;-52
2022/01/14 07:57:36;;;;;;;;;14.00;12.75;;;;;21.02;33.17;103223.28;5058691;28;51120;-46
2022/01/14 08:00:04;;;;;;;;;11.50;11.00;;;;;21.08;33.45;103231.91;5070255;28;51326;-46
2022/01/14 08:02:29;;;;;;;;;15.50;11.75;;;;;21.12;33.12;103228.63;5064857;28;51991;-50
2022/01/14 08:04:55;;;;;;;;;14.25;12.50;;;;;21.18;33.44;103227.13;5061989;28;51187;-52
2022/01/14 08:07:23;;;;;;;;;15.00;13.00;;;;;21.26;33.11;103224.41;5057202;28;51159;-49
2022/01/14 08:09:48;;;;;;;;;17.25;15.25;;;;;21.31;32.85;103231.13;5064806;27;51100;-49
2022/01/14 08:12:14;;;;;;;;;13.00;10.50;;;;;21.39;32.88;103226.66;5075822;28;52499;-48
2022/01/14 08:14:40;;;;;;;;;12.00;9.50;;;;;21.43;32.86;103220.63;5076097;28;51040;-51
2022/01/14 08:17:06;;;;;;;;;11.25;10.00;;;;;21.50;33.20;103237.34;5058083;28;51069;-51
2022/01/14 08:19:36;;;;;;;;;11.50;11.50;;;;;21.53;32.67;103235.09;5065603;28;51038;-52
2022/01/14 08:22:06;;;;;;;;;11.75;10.00;;;;;21.58;32.88;103237.34;5062134;28;51951;-51
2022/01/14 08:24:33;;;;;;;;;12.25;10.25;;;;;21.63;32.58;103237.69;5058233;28;51440;-48
2022/01/14 08:26:58;;;;;;;;;7.25;7.00;;;;;21.68;33.11;103249.06;5071655;27;51319;-49
2022/01/14 08:29:25;;;;;;;;;14.75;13.50;;;;;21.68;32.72;103254.59;5065073;28;51265;-49
2022/01/14 08:31:50;;;;;;;;;19.00;16.25;;;;;21.65;32.18;103246.63;5061937;28;51094;-47
2022/01/14 08:34:16;;;;;;;;;22.50;20.00;;;;;21.58;32.12;103249.25;5067389;28;51173;-50
2022/01/14 08:36:41;;;;;;;;;23.50;22.75;;;;;21.49;31.52;103247.50;5060877;28;51124;-51
2022/01/14 08:39:07;;;;;;;;;22.50;21.50;;;;;21.41;32.34;103249.41;5056905;28;51318;-50
2022/01/14 08:41:32;;;;;;;;;24.25;21.25;;;;;21.32;31.39;103246.63;5058328;28;51633;-50
2022/01/14 08:43:58;;;;;;;;;25.75;22.75;;;;;21.26;32.18;103252.84;5055576;28;51108;-50
2022/01/14 08:46:24;;;;;;;;;22.50;21.25;;;;;21.18;31.44;103258.28;5056500;28;51064;-50
2022/01/14 08:48:49;;;;;;;;;23.25;20.50;;;;;21.11;31.62;103250.84;5057548;28;51100;-47
2022/01/14 08:51:14;;;;;;;;;15.50;14.00;;;;;21.04;31.33;103237.75;5073164;27;51038;-47
2022/01/14 08:53:40;;;;;;;;;20.50;17.75;;;;;20.97;30.66;103241.38;5067499;28;51293;-50
2022/01/14 08:56:05;;;;;;;;;22.00;18.75;;;;;20.96;30.66;103239.66;5061148;28;51215;-50
2022/01/14 08:58:31;;;;;;;;;23.25;19.00;;;;;20.98;31.01;103243.94;5071081;28;51042;-52
2022/01/14 09:00:56;;;;;;;;;14.50;14.00;;;;;21.02;30.75;103238.94;5074751;28;53056;-49
2022/01/14 09:03:21;;;;;;;;;18.25;17.25;;;;;21.06;30.78;103242.25;5067184;27;51514;-49
2022/01/14 09:05:47;;;;;;;;;19.50;15.75;;;;;21.09;30.80;103234.50;5064622;28;52039;-46
2022/01/14 09:08:12;;;;;;;;;17.00;14.00;;;;;21.12;31.40;103236.91;5065989;27;51288;-48
2022/01/14 09:10:39;;;;;;;;;15.00;14.50;;;;;21.13;31.13;103238.63;5060632;28;51043;-45
2022/01/14 09:13:04;;;;;;;;;16.00;13.00;;;;;21.16;31.06;103223.66;5062713;28;51610;-50
2022/01/14 09:15:30;;;;;;;;;18.00;14.25;;;;;21.15;31.53;103227.44;5061213;28;51168;-47
2022/01/14 09:17:55;;;;;;;;;14.50;11.75;;;;;21.11;31.43;103226.91;5061455;27;51057;-49
2022/01/14 09:20:21;;;;;;;;;13.75;12.50;;;;;21.07;31.79;103222.78;5069203;28;51249;-50
2022/01/14 09:22:51;;;;;;;;;11.50;10.50;;;;;21.03;31.52;103226.91;5067912;28;51074;-50
2022/01/14 09:25:20;;;;;;;;;14.25;13.00;;;;;20.97;31.45;103224.84;5067758;27;51108;-51
2022/01/14 09:27:47;;;;;;;;;13.00;12.00;;;;;20.93;31.89;103228.94;5078477;27;51277;-53
2022/01/14 09:30:13;;;;;;;;;14.75;12.50;;;;;20.87;31.45;103218.59;5071405;28;52707;-48
2022/01/14 09:32:38;;;;;;;;;10.25;10.25;;;;;20.82;32.04;103226.50;5067256;27;51139;-46
2022/01/14 09:35:06;;;;;;;;;16.50;14.50;;;;;20.78;31.86;103230.63;5066229;28;51114;-45
2022/01/14 09:37:32;;;;;;;;;13.00;10.25;;;;;20.73;31.59;103220.94;5070932;28;51008;-48
2022/01/14 09:39:57;;;;;;;;;13.25;11.75;;;;;20.69;32.17;103222.31;5071956;28;51228;-51
2022/01/14 09:42:23;;;;;;;;;12.00;10.50;;;;;20.66;32.40;103222.66;5073042;28;51199;-50
2022/01/14 09:44:48;;;;;;;;;13.00;11.25;;;;;20.63;32.11;103222.97;5071610;28;51188;-48
2022/01/14 09:47:19;;;;;;;;;14.00;12.50;;;;;20.59;32.08;103224.34;5065219;28;51121;-47
2022/01/14 09:49:45;;;;;;;;;14.00;13.00;;;;;20.55;32.16;103216.59;5063398;27;51066;-51
2022/01/14 09:52:12;;;;;;;;;17.25;14.50;;;;;20.51;32.02;103223.44;5061246;28;50971;-50
2022/01/14 09:54:39;;;;;;;;;15.50;12.00;;;;;20.45;32.38;103216.72;5065025;28;51117;-50
2022/01/14 09:57:06;;;;;;;;;13.25;11.00;;;;;20.41;32.43;103224.41;5060000;28;51212;-50
2022/01/14 09:59:31;;;;;;;;;15.25;14.00;;;;;20.38;32.39;103232.13;5065323;28;51289;-49
2022/01/14 10:01:57;;;;;;;;;13.00;12.25;;;;;20.32;32.63;103238.28;5062845;28;51268;-47
2022/01/14 10:04:23;;;;;;;;;14.00;13.00;;;;;20.28;32.57;103243.28;5067583;28;51673;-51
2022/01/14 10:06:57;;;;;;;;;14.00;14.00;;;;;20.25;32.56;103240.00;5061235;28;51030;-52
2022/01/14 10:09:39;;;;;;;;;12.50;12.50;;;;;20.19;32.66;103239.59;5062426;28;52113;-50
2022/01/14 10:12:13;;;;;;;;;12.75;12.00;;;;;20.16;32.54;103248.19;5056176;28;51471;-48
2022/01/14 10:14:43;;;;;;;;;14.50;12.75;;;;;20.12;32.54;103245.94;5064125;28;51190;-52
2022/01/14 10:17:10;;;;;;;;;12.00;9.75;;;;;20.09;32.71;103246.25;5060815;28;51530;-49
2022/01/14 10:19:42;;;;;;;;;13.50;13.50;;;;;20.06;32.79;103241.06;5064613;28;51226;-47
2022/01/14 10:22:23;;;;;;;;;15.75;12.75;;;;;20.03;32.87;103242.25;5065541;28;50935;-49
2022/01/14 10:25:10;;;;;;;;;14.00;12.00;;;;;20.00;33.12;103237.06;5074932;28;51080;-46
2022/01/14 10:27:48;;;;;;;;;14.00;9.75;;;;;19.99;33.13;103238.09;5079855;27;51133;-50
2022/01/14 10:30:19;;;;;;;;;11.50;11.50;;;;;20.00;32.87;103238.97;5054500;28;52603;-49
2022/01/14 10:33:07;;;;;;;;;10.50;10.50;;;;;19.99;33.26;103235.34;5067447;28;51370;-47
2022/01/14 10:35:37;;;;;;;;;11.75;9.75;;;;;19.99;33.00;103238.09;5070604;28;51049;-47
2022/01/14 10:38:05;;;;;;;;;12.00;9.00;;;;;20.00;32.86;103225.19;5060723;28;51147;-47
2022/01/14 10:40:34;;;;;;;;;14.25;13.25;;;;;20.01;33.17;103233.31;5062448;27;53569;-44
2022/01/14 10:43:06;;;;;;;;;12.75;12.00;;;;;20.00;32.81;103230.69;5063465;28;51539;-47
2022/01/14 10:45:32;;;;;;;;;15.00;13.00;;;;;20.00;33.17;103228.81;5060574;28;51207;-49
2022/01/14 10:48:03;;;;;;;;;17.25;12.50;;;;;20.00;33.11;103231.56;5071759;28;51029;-45
2022/01/14 10:50:40;;;;;;;;;10.50;10.50;;;;;20.00;32.96;103231.56;5056852;27;51141;-49
2022/01/14 10:53:18;;;;;;;;;16.00;15.25;;;;;19.99;32.89;103229.84;5053899;28;51367;-48
2022/01/14 10:55:49;;;;;;;;;14.75;11.75;;;;;20.00;32.84;103219.69;5059459;28;51197;-47
2022/01/14 10:58:23;;;;;;;;;10.75;10.75;;;;;19.99;33.20;103205.06;5080027;27;51164;-46
2022/01/14 11:00:54;;;;;;;;;13.50;11.25;;;;;19.99;32.90;103201.47;5064495;28;50999;-46
2022/01/14 11:03:32;;;;;;;;;14.75;13.00;;;;;19.98;32.97;103200.59;5067199;28;51511;-44
2022/01/14 11:06:32;;;;;;;;;14.50;13.50;;;;;19.98;33.13;103203.34;5061222;28;51212;-44
2022/01/14 11:09:00;;;;;;;;;16.50;15.50;;;;;19.99;32.76;103204.22;5065530;28;51478;-46
2022/01/14 11:11:27;;;;;;;;;14.75;14.50;;;;;19.97;33.38;103204.38;5065738;28;51929;-45
2022/01/14 11:13:53;;;;;;;;;16.25;11.75;;;;;19.98;33.34;103203.34;5065950;28;51216;-47
2022/01/14 11:16:18;;;;;;;;;16.00;15.25;;;;;19.97;32.89;103204.38;5065995;27;51245;-49
2022/01/14 11:18:46;;;;;;;;;19.25;15.00;;;;;19.97;33.20;103192.53;5065631;27;51346;-50
2022/01/14 11:23:56;;;;;;;;;19.50;17.25;;;;;19.97;33.27;103198.88;5068529;28;51119;-48
2022/01/14 11:26:27;;;;;;;;;18.75;14.75;;;;;19.96;32.88;103197.16;5069392;27;51335;-48
2022/01/14 11:28:53;;;;;;;;;17.25;14.25;;;;;19.96;32.86;103182.53;5070074;28;51128;-49
2022/01/14 11:31:27;;;;;;;;;16.25;15.25;;;;;19.96;33.24;103182.53;5064830;28;51698;-48
2022/01/14 11:33:54;;;;;;;;;15.25;13.50;;;;;19.95;33.02;103186.31;5068504;28;51061;-47
2022/01/14 11:36:19;;;;;;;;;17.00;17.00;;;;;19.95;33.08;103181.69;5070696;28;51073;-46